sensor_id;sensor_type;location;lat;lon;timestamp;temperature;humidity
44166;DHT22;30476;53.468;9.826;2023-03-23T00:00:52;12.30;99.90
44166;DHT22;30476;53.468;9.826;2023-03-23T00:03:20;12.30;99.90
44166;DHT22;30476;53.468;9.826;2023-03-23T00:05:47;12.30;99.90
44166;DHT22;30476;53.468;9.826;2023-03-23T00:08:19;12.30;99.90
44166;DHT22;30476;53.468;9.826;2023-03-23T00:10:50;12.30;99.90
44166;DHT22;30476;53.468;9.826;2023-03-23T00:13:26;12.20;99.90
44166;DHT22;30476;53.468;9.826;2023-03-23T00:15:52;12.30;99.90
44166;DHT22;30476;53.468;9.826;2023-03-23T00:18:19;12.30;99.90
44166;DHT22;30476;53.468;9.826;2023-03-23T00:20:54;12.20;99.90
44166;DHT22;30476;53.468;9.826;2023-03-23T00:23:22;12.30;99.90
44166;DHT22;30476;53.468;9.826;2023-03-23T00:25:53;12.20;99.90
44166;DHT22;30476;53.468;9.826;2023-03-23T00:28:23;12.20;99.90
44166;DHT22;30476;53.468;9.826;2023-03-23T00:31:00;12.20;99.90
44166;DHT22;30476;53.468;9.826;2023-03-23T00:33:28;12.10;99.90
44166;DHT22;30476;53.468;9.826;2023-03-23T00:35:55;12.10;99.90
44166;DHT22;30476;53.468;9.826;2023-03-23T00:38:22;12.10;99.90
44166;DHT22;30476;53.468;9.826;2023-03-23T00:40:48;12.10;99.90
44166;DHT22;30476;53.468;9.826;2023-03-23T00:43:16;12.00;99.90
44166;DHT22;30476;53.468;9.826;2023-03-23T00:45:43;12.00;99.90
44166;DHT22;30476;53.468;9.826;2023-03-23T00:48:22;12.00;99.90
44166;DHT22;30476;53.468;9.826;2023-03-23T00:50:49;12.00;99.90
44166;DHT22;30476;53.468;9.826;2023-03-23T00:53:16;12.00;99.90
44166;DHT22;30476;53.468;9.826;2023-03-23T00:55:42;11.90;99.90
44166;DHT22;30476;53.468;9.826;2023-03-23T00:58:09;11.90;99.90
44166;DHT22;30476;53.468;9.826;2023-03-23T01:00:35;11.90;99.90
44166;DHT22;30476;53.468;9.826;2023-03-23T01:03:02;11.90;99.90
44166;DHT22;30476;53.468;9.826;2023-03-23T01:05:27;11.90;99.90
44166;DHT22;30476;53.468;9.826;2023-03-23T01:08:00;11.80;99.90
44166;DHT22;30476;53.468;9.826;2023-03-23T01:10:27;11.90;99.90
44166;DHT22;30476;53.468;9.826;2023-03-23T01:12:54;11.90;99.90
44166;DHT22;30476;53.468;9.826;2023-03-23T01:15:21;11.80;99.90
44166;DHT22;30476;53.468;9.826;2023-03-23T01:17:47;11.80;99.90
44166;DHT22;30476;53.468;9.826;2023-03-23T01:20:14;11.80;99.90
44166;DHT22;30476;53.468;9.826;2023-03-23T01:22:42;11.80;99.90
44166;DHT22;30476;53.468;9.826;2023-03-23T01:25:09;11.90;99.90
44166;DHT22;30476;53.468;9.826;2023-03-23T01:27:35;11.90;99.90
44166;DHT22;30476;53.468;9.826;2023-03-23T01:30:02;11.80;99.90
44166;DHT22;30476;53.468;9.826;2023-03-23T01:32:28;11.80;99.90
44166;DHT22;30476;53.468;9.826;2023-03-23T01:34:54;11.90;99.90
44166;DHT22;30476;53.468;9.826;2023-03-23T01:37:21;11.90;99.90
44166;DHT22;30476;53.468;9.826;2023-03-23T01:39:55;11.90;99.90
44166;DHT22;30476;53.468;9.826;2023-03-23T01:42:26;11.90;99.90
44166;DHT22;30476;53.468;9.826;2023-03-23T01:47:21;11.90;99.90
44166;DHT22;30476;53.468;9.826;2023-03-23T01:49:52;11.80;99.90
44166;DHT22;30476;53.468;9.826;2023-03-23T01:52:23;11.90;99.90
44166;DHT22;30476;53.468;9.826;2023-03-23T01:54:52;11.90;99.90
44166;DHT22;30476;53.468;9.826;2023-03-23T01:57:22;11.90;99.90
44166;DHT22;30476;53.468;9.826;2023-03-23T01:59:53;11.90;99.90
44166;DHT22;30476;53.468;9.826;2023-03-23T02:02:21;11.90;99.90
44166;DHT22;30476;53.468;9.826;2023-03-23T02:04:48;11.80;99.90
44166;DHT22;30476;53.468;9.826;2023-03-23T02:07:15;11.90;99.90
44166;DHT22;30476;53.468;9.826;2023-03-23T02:09:42;11.90;99.90
44166;DHT22;30476;53.468;9.826;2023-03-23T02:12:08;11.80;99.90
44166;DHT22;30476;53.468;9.826;2023-03-23T02:14:34;11.80;99.90
44166;DHT22;30476;53.468;9.826;2023-03-23T02:17:05;11.80;99.90
44166;DHT22;30476;53.468;9.826;2023-03-23T02:28:23;11.90;99.90
44166;DHT22;30476;53.468;9.826;2023-03-23T02:31:11;11.90;99.90
44166;DHT22;30476;53.468;9.826;2023-03-23T02:36:51;11.90;99.90
44166;DHT22;30476;53.468;9.826;2023-03-23T02:39:25;11.90;99.90
44166;DHT22;30476;53.468;9.826;2023-03-23T02:42:04;11.90;99.90
44166;DHT22;30476;53.468;9.826;2023-03-23T02:44:33;11.90;99.90
44166;DHT22;30476;53.468;9.826;2023-03-23T02:47:04;11.90;99.90
44166;DHT22;30476;53.468;9.826;2023-03-23T02:49:33;11.90;99.90
44166;DHT22;30476;53.468;9.826;2023-03-23T02:52:12;11.90;99.90
44166;DHT22;30476;53.468;9.826;2023-03-23T02:54:43;11.90;99.90
44166;DHT22;30476;53.468;9.826;2023-03-23T02:57:10;11.90;99.90
44166;DHT22;30476;53.468;9.826;2023-03-23T02:59:36;11.90;99.90
44166;DHT22;30476;53.468;9.826;2023-03-23T03:02:09;11.90;99.90
44166;DHT22;30476;53.468;9.826;2023-03-23T03:04:38;11.90;99.90
44166;DHT22;30476;53.468;9.826;2023-03-23T03:08:01;11.90;99.90
44166;DHT22;30476;53.468;9.826;2023-03-23T03:10:23;12.00;99.90
44166;DHT22;30476;53.468;9.826;2023-03-23T03:13:22;12.00;99.90
44166;DHT22;30476;53.468;9.826;2023-03-23T03:18:38;12.00;99.90
44166;DHT22;30476;53.468;9.826;2023-03-23T03:21:08;11.90;99.90
44166;DHT22;30476;53.468;9.826;2023-03-23T03:23:40;12.00;99.90
44166;DHT22;30476;53.468;9.826;2023-03-23T03:26:11;12.00;99.90
44166;DHT22;30476;53.468;9.826;2023-03-23T03:28:38;12.00;99.90
44166;DHT22;30476;53.468;9.826;2023-03-23T03:31:05;12.00;99.90
44166;DHT22;30476;53.468;9.826;2023-03-23T03:33:32;12.00;99.90
44166;DHT22;30476;53.468;9.826;2023-03-23T03:36:01;12.00;99.90
44166;DHT22;30476;53.468;9.826;2023-03-23T03:38:28;12.00;99.90
44166;DHT22;30476;53.468;9.826;2023-03-23T03:40:55;12.00;99.90
44166;DHT22;30476;53.468;9.826;2023-03-23T03:43:21;12.00;99.90
44166;DHT22;30476;53.468;9.826;2023-03-23T03:45:47;12.00;99.90
44166;DHT22;30476;53.468;9.826;2023-03-23T03:48:13;12.00;99.90
44166;DHT22;30476;53.468;9.826;2023-03-23T03:50:39;12.00;99.90
44166;DHT22;30476;53.468;9.826;2023-03-23T03:53:05;11.90;99.90
44166;DHT22;30476;53.468;9.826;2023-03-23T03:58:53;11.90;99.90
44166;DHT22;30476;53.468;9.826;2023-03-23T04:01:21;12.00;99.90
44166;DHT22;30476;53.468;9.826;2023-03-23T04:03:48;11.90;99.90
44166;DHT22;30476;53.468;9.826;2023-03-23T04:06:15;11.90;99.90
44166;DHT22;30476;53.468;9.826;2023-03-23T04:08:41;11.90;99.90
44166;DHT22;30476;53.468;9.826;2023-03-23T04:11:08;12.00;99.90
44166;DHT22;30476;53.468;9.826;2023-03-23T04:13:34;12.00;99.90
44166;DHT22;30476;53.468;9.826;2023-03-23T04:16:00;12.00;99.90
44166;DHT22;30476;53.468;9.826;2023-03-23T04:18:26;12.00;99.90
44166;DHT22;30476;53.468;9.826;2023-03-23T04:20:52;12.00;99.90
44166;DHT22;30476;53.468;9.826;2023-03-23T04:23:20;12.00;99.90
44166;DHT22;30476;53.468;9.826;2023-03-23T04:25:48;12.00;99.90
44166;DHT22;30476;53.468;9.826;2023-03-23T04:28:16;12.00;99.90
44166;DHT22;30476;53.468;9.826;2023-03-23T04:30:50;12.00;99.90
44166;DHT22;30476;53.468;9.826;2023-03-23T04:33:23;12.00;99.90
44166;DHT22;30476;53.468;9.826;2023-03-23T04:35:52;12.00;99.90
44166;DHT22;30476;53.468;9.826;2023-03-23T04:38:19;12.00;99.90
44166;DHT22;30476;53.468;9.826;2023-03-23T04:40:47;12.00;99.90
44166;DHT22;30476;53.468;9.826;2023-03-23T04:43:13;12.00;99.90
44166;DHT22;30476;53.468;9.826;2023-03-23T04:45:40;12.00;99.90
44166;DHT22;30476;53.468;9.826;2023-03-23T04:48:11;12.00;99.90
44166;DHT22;30476;53.468;9.826;2023-03-23T04:50:37;12.00;99.90
44166;DHT22;30476;53.468;9.826;2023-03-23T04:53:03;12.00;99.90
44166;DHT22;30476;53.468;9.826;2023-03-23T04:55:35;12.00;99.90
44166;DHT22;30476;53.468;9.826;2023-03-23T04:58:04;11.90;99.90
44166;DHT22;30476;53.468;9.826;2023-03-23T05:00:35;12.00;99.90
44166;DHT22;30476;53.468;9.826;2023-03-23T05:03:01;12.00;99.90
44166;DHT22;30476;53.468;9.826;2023-03-23T05:05:27;12.00;99.90
44166;DHT22;30476;53.468;9.826;2023-03-23T05:07:56;11.90;99.90
44166;DHT22;30476;53.468;9.826;2023-03-23T05:10:22;12.00;99.90
44166;DHT22;30476;53.468;9.826;2023-03-23T05:12:48;12.00;99.90
44166;DHT22;30476;53.468;9.826;2023-03-23T05:15:15;12.00;99.90
44166;DHT22;30476;53.468;9.826;2023-03-23T05:17:42;12.00;99.90
44166;DHT22;30476;53.468;9.826;2023-03-23T05:20:12;12.00;99.90
44166;DHT22;30476;53.468;9.826;2023-03-23T05:22:41;12.10;99.90
44166;DHT22;30476;53.468;9.826;2023-03-23T05:25:08;12.00;99.90
44166;DHT22;30476;53.468;9.826;2023-03-23T05:27:36;12.10;99.90
44166;DHT22;30476;53.468;9.826;2023-03-23T05:30:03;12.10;99.90
44166;DHT22;30476;53.468;9.826;2023-03-23T05:32:29;12.10;99.90
44166;DHT22;30476;53.468;9.826;2023-03-23T05:34:59;12.00;99.90
44166;DHT22;30476;53.468;9.826;2023-03-23T05:37:27;12.10;99.90
44166;DHT22;30476;53.468;9.826;2023-03-23T05:39:58;12.10;99.90
44166;DHT22;30476;53.468;9.826;2023-03-23T05:42:35;12.10;99.90
44166;DHT22;30476;53.468;9.826;2023-03-23T05:45:05;12.00;99.90
44166;DHT22;30476;53.468;9.826;2023-03-23T05:47:31;12.00;99.90
44166;DHT22;30476;53.468;9.826;2023-03-23T05:49:58;12.00;99.90
44166;DHT22;30476;53.468;9.826;2023-03-23T05:52:24;12.00;99.90
44166;DHT22;30476;53.468;9.826;2023-03-23T05:54:50;12.00;99.90
44166;DHT22;30476;53.468;9.826;2023-03-23T05:57:16;12.00;99.90
44166;DHT22;30476;53.468;9.826;2023-03-23T05:59:43;12.00;99.90
44166;DHT22;30476;53.468;9.826;2023-03-23T06:02:10;12.00;99.90
44166;DHT22;30476;53.468;9.826;2023-03-23T06:04:36;12.00;99.90
44166;DHT22;30476;53.468;9.826;2023-03-23T06:07:04;12.00;99.90
44166;DHT22;30476;53.468;9.826;2023-03-23T06:09:30;12.00;99.90
44166;DHT22;30476;53.468;9.826;2023-03-23T06:11:56;12.00;99.90
44166;DHT22;30476;53.468;9.826;2023-03-23T06:14:22;12.00;99.90
44166;DHT22;30476;53.468;9.826;2023-03-23T06:16:48;12.00;99.90
44166;DHT22;30476;53.468;9.826;2023-03-23T06:19:14;11.90;99.90
44166;DHT22;30476;53.468;9.826;2023-03-23T06:21:41;11.90;99.90
44166;DHT22;30476;53.468;9.826;2023-03-23T06:24:07;12.00;99.90
44166;DHT22;30476;53.468;9.826;2023-03-23T06:26:38;12.00;99.90
44166;DHT22;30476;53.468;9.826;2023-03-23T06:29:05;11.90;99.90
44166;DHT22;30476;53.468;9.826;2023-03-23T06:31:39;12.00;99.90
44166;DHT22;30476;53.468;9.826;2023-03-23T06:34:06;12.00;99.90
44166;DHT22;30476;53.468;9.826;2023-03-23T06:36:32;11.90;99.90
44166;DHT22;30476;53.468;9.826;2023-03-23T06:38:58;11.90;99.90
44166;DHT22;30476;53.468;9.826;2023-03-23T06:41:24;11.90;99.90
44166;DHT22;30476;53.468;9.826;2023-03-23T06:43:49;11.90;99.90
44166;DHT22;30476;53.468;9.826;2023-03-23T06:46:15;12.00;99.90
44166;DHT22;30476;53.468;9.826;2023-03-23T06:48:41;12.00;99.90
44166;DHT22;30476;53.468;9.826;2023-03-23T06:51:07;12.00;99.90
44166;DHT22;30476;53.468;9.826;2023-03-23T06:53:33;12.00;99.90
44166;DHT22;30476;53.468;9.826;2023-03-23T06:55:59;12.00;99.90
44166;DHT22;30476;53.468;9.826;2023-03-23T06:58:25;12.00;99.90
44166;DHT22;30476;53.468;9.826;2023-03-23T07:00:55;12.10;99.90
44166;DHT22;30476;53.468;9.826;2023-03-23T07:03:24;12.10;99.90
44166;DHT22;30476;53.468;9.826;2023-03-23T07:05:51;12.20;99.90
44166;DHT22;30476;53.468;9.826;2023-03-23T07:08:17;12.20;99.90
44166;DHT22;30476;53.468;9.826;2023-03-23T07:10:43;12.20;99.90
44166;DHT22;30476;53.468;9.826;2023-03-23T07:13:09;12.30;99.90
44166;DHT22;30476;53.468;9.826;2023-03-23T07:15:35;12.40;99.90
44166;DHT22;30476;53.468;9.826;2023-03-23T07:18:02;12.40;99.90
44166;DHT22;30476;53.468;9.826;2023-03-23T07:20:28;12.40;99.90
44166;DHT22;30476;53.468;9.826;2023-03-23T07:22:54;12.50;99.90
44166;DHT22;30476;53.468;9.826;2023-03-23T07:25:20;12.50;99.90
44166;DHT22;30476;53.468;9.826;2023-03-23T07:27:46;12.40;99.90
44166;DHT22;30476;53.468;9.826;2023-03-23T07:30:13;12.50;99.90
44166;DHT22;30476;53.468;9.826;2023-03-23T07:32:40;12.50;99.90
44166;DHT22;30476;53.468;9.826;2023-03-23T07:35:07;12.50;99.90
44166;DHT22;30476;53.468;9.826;2023-03-23T07:37:33;12.60;99.90
44166;DHT22;30476;53.468;9.826;2023-03-23T07:39:59;12.60;99.90
44166;DHT22;30476;53.468;9.826;2023-03-23T07:42:25;12.70;99.90
44166;DHT22;30476;53.468;9.826;2023-03-23T07:44:51;12.70;99.90
44166;DHT22;30476;53.468;9.826;2023-03-23T07:47:16;12.80;99.90
44166;DHT22;30476;53.468;9.826;2023-03-23T07:49:43;12.80;99.90
44166;DHT22;30476;53.468;9.826;2023-03-23T07:52:09;12.80;99.90
44166;DHT22;30476;53.468;9.826;2023-03-23T07:54:36;12.80;99.90
44166;DHT22;30476;53.468;9.826;2023-03-23T07:57:02;12.90;99.90
44166;DHT22;30476;53.468;9.826;2023-03-23T07:59:28;12.90;99.90
44166;DHT22;30476;53.468;9.826;2023-03-23T08:01:54;13.00;99.90
44166;DHT22;30476;53.468;9.826;2023-03-23T08:04:20;13.00;99.90
44166;DHT22;30476;53.468;9.826;2023-03-23T08:06:45;13.00;99.90
44166;DHT22;30476;53.468;9.826;2023-03-23T08:09:12;13.00;99.90
44166;DHT22;30476;53.468;9.826;2023-03-23T08:11:38;13.10;99.90
44166;DHT22;30476;53.468;9.826;2023-03-23T08:14:04;13.00;99.90
44166;DHT22;30476;53.468;9.826;2023-03-23T08:16:31;13.10;99.90
44166;DHT22;30476;53.468;9.826;2023-03-23T08:18:58;13.00;99.90
44166;DHT22;30476;53.468;9.826;2023-03-23T08:21:24;13.10;99.90
44166;DHT22;30476;53.468;9.826;2023-03-23T08:23:49;13.10;99.90
44166;DHT22;30476;53.468;9.826;2023-03-23T08:26:15;13.10;99.90
44166;DHT22;30476;53.468;9.826;2023-03-23T08:28:42;13.10;99.90
44166;DHT22;30476;53.468;9.826;2023-03-23T08:31:11;13.00;99.90
44166;DHT22;30476;53.468;9.826;2023-03-23T08:33:38;13.00;99.90
44166;DHT22;30476;53.468;9.826;2023-03-23T08:36:05;13.00;99.90
44166;DHT22;30476;53.468;9.826;2023-03-23T08:38:31;13.00;99.90
44166;DHT22;30476;53.468;9.826;2023-03-23T08:40:59;13.00;99.90
44166;DHT22;30476;53.468;9.826;2023-03-23T08:43:25;13.00;99.90
44166;DHT22;30476;53.468;9.826;2023-03-23T08:45:51;13.00;99.90
44166;DHT22;30476;53.468;9.826;2023-03-23T08:48:17;13.00;99.90
44166;DHT22;30476;53.468;9.826;2023-03-23T08:50:43;12.90;99.90
44166;DHT22;30476;53.468;9.826;2023-03-23T08:53:09;13.00;99.90
44166;DHT22;30476;53.468;9.826;2023-03-23T08:55:35;12.90;99.90
44166;DHT22;30476;53.468;9.826;2023-03-23T08:58:01;12.90;99.90
44166;DHT22;30476;53.468;9.826;2023-03-23T09:00:29;12.80;99.90
44166;DHT22;30476;53.468;9.826;2023-03-23T09:02:55;12.90;99.90
44166;DHT22;30476;53.468;9.826;2023-03-23T09:05:24;12.90;99.90
44166;DHT22;30476;53.468;9.826;2023-03-23T09:07:52;12.90;99.90
44166;DHT22;30476;53.468;9.826;2023-03-23T09:10:19;12.90;99.90
44166;DHT22;30476;53.468;9.826;2023-03-23T09:12:46;12.90;99.90
44166;DHT22;30476;53.468;9.826;2023-03-23T09:15:14;13.00;99.90
44166;DHT22;30476;53.468;9.826;2023-03-23T09:17:43;13.00;99.90
44166;DHT22;30476;53.468;9.826;2023-03-23T09:20:12;13.00;99.90
44166;DHT22;30476;53.468;9.826;2023-03-23T09:22:40;13.00;99.90
44166;DHT22;30476;53.468;9.826;2023-03-23T09:25:08;13.00;99.90
44166;DHT22;30476;53.468;9.826;2023-03-23T09:27:35;13.00;99.90
44166;DHT22;30476;53.468;9.826;2023-03-23T09:30:08;13.00;99.90
44166;DHT22;30476;53.468;9.826;2023-03-23T09:32:36;13.00;99.90
44166;DHT22;30476;53.468;9.826;2023-03-23T09:35:05;13.00;99.90
44166;DHT22;30476;53.468;9.826;2023-03-23T09:37:35;13.00;99.90
44166;DHT22;30476;53.468;9.826;2023-03-23T09:40:03;12.90;99.90
44166;DHT22;30476;53.468;9.826;2023-03-23T09:42:33;13.00;99.90
44166;DHT22;30476;53.468;9.826;2023-03-23T09:45:29;13.00;99.90
44166;DHT22;30476;53.468;9.826;2023-03-23T09:48:22;13.00;99.90
44166;DHT22;30476;53.468;9.826;2023-03-23T09:50:52;13.00;99.90
44166;DHT22;30476;53.468;9.826;2023-03-23T09:53:42;13.10;99.90
44166;DHT22;30476;53.468;9.826;2023-03-23T09:56:14;13.10;99.90
44166;DHT22;30476;53.468;9.826;2023-03-23T09:58:56;13.10;99.90
44166;DHT22;30476;53.468;9.826;2023-03-23T10:01:36;13.20;99.90
44166;DHT22;30476;53.468;9.826;2023-03-23T10:04:15;13.20;99.90
44166;DHT22;30476;53.468;9.826;2023-03-23T10:06:46;13.30;99.90
44166;DHT22;30476;53.468;9.826;2023-03-23T10:09:15;13.30;99.90
44166;DHT22;30476;53.468;9.826;2023-03-23T10:14:26;13.50;99.90
44166;DHT22;30476;53.468;9.826;2023-03-23T10:17:18;13.50;99.90
44166;DHT22;30476;53.468;9.826;2023-03-23T10:19:52;13.60;99.90
44166;DHT22;30476;53.468;9.826;2023-03-23T10:22:32;13.90;99.90
44166;DHT22;30476;53.468;9.826;2023-03-23T10:28:46;14.10;99.90
44166;DHT22;30476;53.468;9.826;2023-03-23T10:30:51;14.30;99.90
44166;DHT22;30476;53.468;9.826;2023-03-23T10:36:05;14.40;99.90
44166;DHT22;30476;53.468;9.826;2023-03-23T10:38:44;14.40;99.90
44166;DHT22;30476;53.468;9.826;2023-03-23T10:41:13;14.40;99.90
44166;DHT22;30476;53.468;9.826;2023-03-23T10:43:39;14.40;99.90
44166;DHT22;30476;53.468;9.826;2023-03-23T10:46:22;14.40;99.90
44166;DHT22;30476;53.468;9.826;2023-03-23T10:48:51;14.40;99.90
44166;DHT22;30476;53.468;9.826;2023-03-23T10:51:23;14.40;99.90
44166;DHT22;30476;53.468;9.826;2023-03-23T10:53:57;14.40;99.90
44166;DHT22;30476;53.468;9.826;2023-03-23T10:56:26;14.40;99.90
44166;DHT22;30476;53.468;9.826;2023-03-23T10:58:53;14.40;99.90
44166;DHT22;30476;53.468;9.826;2023-03-23T11:01:33;14.40;99.90
44166;DHT22;30476;53.468;9.826;2023-03-23T11:04:00;14.30;99.90
44166;DHT22;30476;53.468;9.826;2023-03-23T11:06:30;14.30;99.90
44166;DHT22;30476;53.468;9.826;2023-03-23T11:08:57;14.30;99.90
44166;DHT22;30476;53.468;9.826;2023-03-23T11:11:30;14.30;99.90
44166;DHT22;30476;53.468;9.826;2023-03-23T11:14:46;14.40;99.90
44166;DHT22;30476;53.468;9.826;2023-03-23T11:16:52;14.40;99.90
44166;DHT22;30476;53.468;9.826;2023-03-23T11:19:33;14.40;99.90
44166;DHT22;30476;53.468;9.826;2023-03-23T11:24:40;14.40;99.90
44166;DHT22;30476;53.468;9.826;2023-03-23T11:27:07;14.40;99.90
44166;DHT22;30476;53.468;9.826;2023-03-23T11:29:35;14.50;99.90
44166;DHT22;30476;53.468;9.826;2023-03-23T11:32:06;14.50;99.90
44166;DHT22;30476;53.468;9.826;2023-03-23T11:34:43;14.60;99.90
44166;DHT22;30476;53.468;9.826;2023-03-23T11:37:12;14.60;99.90
44166;DHT22;30476;53.468;9.826;2023-03-23T11:42:43;14.70;99.90
44166;DHT22;30476;53.468;9.826;2023-03-23T11:45:16;14.70;99.90
44166;DHT22;30476;53.468;9.826;2023-03-23T11:48:13;14.70;99.90
44166;DHT22;30476;53.468;9.826;2023-03-23T11:50:53;14.70;99.90
44166;DHT22;30476;53.468;9.826;2023-03-23T11:53:24;14.70;99.90
44166;DHT22;30476;53.468;9.826;2023-03-23T11:58:21;14.60;99.90
44166;DHT22;30476;53.468;9.826;2023-03-23T12:00:58;14.60;99.90
44166;DHT22;30476;53.468;9.826;2023-03-23T12:06:05;14.50;99.90
44166;DHT22;30476;53.468;9.826;2023-03-23T12:11:23;14.40;99.90
44166;DHT22;30476;53.468;9.826;2023-03-23T12:14:09;14.40;99.90
44166;DHT22;30476;53.468;9.826;2023-03-23T12:17:00;14.40;99.90
44166;DHT22;30476;53.468;9.826;2023-03-23T12:22:45;14.40;99.90
44166;DHT22;30476;53.468;9.826;2023-03-23T12:34:09;14.20;99.90
44166;DHT22;30476;53.468;9.826;2023-03-23T12:36:50;14.20;99.90
44166;DHT22;30476;53.468;9.826;2023-03-23T12:47:42;14.40;99.90
44166;DHT22;30476;53.468;9.826;2023-03-23T12:50:24;14.60;99.90
44166;DHT22;30476;53.468;9.826;2023-03-23T12:55:23;14.80;99.90
44166;DHT22;30476;53.468;9.826;2023-03-23T12:57:57;14.80;99.90
44166;DHT22;30476;53.468;9.826;2023-03-23T13:01:02;15.00;99.90
44166;DHT22;30476;53.468;9.826;2023-03-23T13:03:38;15.20;99.90
44166;DHT22;30476;53.468;9.826;2023-03-23T13:06:09;15.40;99.90
44166;DHT22;30476;53.468;9.826;2023-03-23T13:08:47;15.70;99.90
44166;DHT22;30476;53.468;9.826;2023-03-23T13:11:43;15.90;99.90
44166;DHT22;30476;53.468;9.826;2023-03-23T13:17:31;16.10;99.90
44166;DHT22;30476;53.468;9.826;2023-03-23T13:22:53;16.30;99.90
44166;DHT22;30476;53.468;9.826;2023-03-23T13:25:51;16.30;99.90
44166;DHT22;30476;53.468;9.826;2023-03-23T13:28:24;16.40;99.90
44166;DHT22;30476;53.468;9.826;2023-03-23T13:30:58;16.50;99.90
44166;DHT22;30476;53.468;9.826;2023-03-23T13:33:28;16.60;99.90
44166;DHT22;30476;53.468;9.826;2023-03-23T13:35:54;16.60;99.90
44166;DHT22;30476;53.468;9.826;2023-03-23T13:38:24;16.80;99.90
44166;DHT22;30476;53.468;9.826;2023-03-23T13:40:51;16.80;99.90
44166;DHT22;30476;53.468;9.826;2023-03-23T13:43:32;16.90;99.90
44166;DHT22;30476;53.468;9.826;2023-03-23T13:46:29;17.10;99.90
44166;DHT22;30476;53.468;9.826;2023-03-23T13:51:58;17.10;99.90
44166;DHT22;30476;53.468;9.826;2023-03-23T13:56:58;17.10;99.90
44166;DHT22;30476;53.468;9.826;2023-03-23T14:01:53;17.00;99.90
44166;DHT22;30476;53.468;9.826;2023-03-23T14:04:21;16.80;99.90
44166;DHT22;30476;53.468;9.826;2023-03-23T14:06:49;16.50;99.90
44166;DHT22;30476;53.468;9.826;2023-03-23T14:09:31;16.20;99.90
44166;DHT22;30476;53.468;9.826;2023-03-23T14:12:03;16.00;99.90
44166;DHT22;30476;53.468;9.826;2023-03-23T14:14:42;15.70;99.90
44166;DHT22;30476;53.468;9.826;2023-03-23T14:17:18;15.50;99.90
44166;DHT22;30476;53.468;9.826;2023-03-23T14:19:48;15.40;99.90
44166;DHT22;30476;53.468;9.826;2023-03-23T14:22:27;15.20;99.90
44166;DHT22;30476;53.468;9.826;2023-03-23T14:25:11;15.10;99.90
44166;DHT22;30476;53.468;9.826;2023-03-23T14:27:37;15.00;99.90
44166;DHT22;30476;53.468;9.826;2023-03-23T14:30:06;14.90;99.90
44166;DHT22;30476;53.468;9.826;2023-03-23T14:32:33;14.80;99.90
44166;DHT22;30476;53.468;9.826;2023-03-23T14:35:04;14.70;99.90
44166;DHT22;30476;53.468;9.826;2023-03-23T14:37:31;14.60;99.90
44166;DHT22;30476;53.468;9.826;2023-03-23T14:39:58;14.60;99.90
44166;DHT22;30476;53.468;9.826;2023-03-23T14:42:30;14.50;99.90
44166;DHT22;30476;53.468;9.826;2023-03-23T14:44:57;14.50;99.90
44166;DHT22;30476;53.468;9.826;2023-03-23T14:49:57;14.40;99.90
44166;DHT22;30476;53.468;9.826;2023-03-23T14:52:26;14.30;99.90
44166;DHT22;30476;53.468;9.826;2023-03-23T14:54:52;14.30;99.90
44166;DHT22;30476;53.468;9.826;2023-03-23T14:57:28;14.30;99.90
44166;DHT22;30476;53.468;9.826;2023-03-23T14:59:55;14.20;99.90
44166;DHT22;30476;53.468;9.826;2023-03-23T15:02:33;14.20;99.90
44166;DHT22;30476;53.468;9.826;2023-03-23T15:05:19;14.20;99.90
44166;DHT22;30476;53.468;9.826;2023-03-23T15:07:50;14.10;99.90
44166;DHT22;30476;53.468;9.826;2023-03-23T15:10:21;14.20;99.90
44166;DHT22;30476;53.468;9.826;2023-03-23T15:12:49;14.10;99.90
44166;DHT22;30476;53.468;9.826;2023-03-23T15:15:45;14.10;99.90
44166;DHT22;30476;53.468;9.826;2023-03-23T15:18:29;14.00;99.90
44166;DHT22;30476;53.468;9.826;2023-03-23T15:20:56;14.00;99.90
44166;DHT22;30476;53.468;9.826;2023-03-23T15:23:28;14.00;99.90
44166;DHT22;30476;53.468;9.826;2023-03-23T15:25:56;14.00;99.90
44166;DHT22;30476;53.468;9.826;2023-03-23T15:28:29;13.90;99.90
44166;DHT22;30476;53.468;9.826;2023-03-23T15:31:00;13.80;99.90
44166;DHT22;30476;53.468;9.826;2023-03-23T15:33:26;13.80;99.90
44166;DHT22;30476;53.468;9.826;2023-03-23T15:35:57;13.70;99.90
44166;DHT22;30476;53.468;9.826;2023-03-23T15:38:29;13.70;99.90
44166;DHT22;30476;53.468;9.826;2023-03-23T15:41:01;13.60;99.90
44166;DHT22;30476;53.468;9.826;2023-03-23T15:43:32;13.60;99.90
44166;DHT22;30476;53.468;9.826;2023-03-23T15:48:52;13.50;99.90
44166;DHT22;30476;53.468;9.826;2023-03-23T15:51:24;13.40;99.90
44166;DHT22;30476;53.468;9.826;2023-03-23T15:53:52;13.40;99.90
44166;DHT22;30476;53.468;9.826;2023-03-23T15:56:18;13.40;99.90
44166;DHT22;30476;53.468;9.826;2023-03-23T15:58:44;13.40;99.90
44166;DHT22;30476;53.468;9.826;2023-03-23T16:01:19;13.40;99.90
44166;DHT22;30476;53.468;9.826;2023-03-23T16:06:25;13.40;99.90
44166;DHT22;30476;53.468;9.826;2023-03-23T16:08:52;13.40;99.90
44166;DHT22;30476;53.468;9.826;2023-03-23T16:11:18;13.30;99.90
44166;DHT22;30476;53.468;9.826;2023-03-23T16:13:44;13.30;99.90
44166;DHT22;30476;53.468;9.826;2023-03-23T16:16:23;13.30;99.90
44166;DHT22;30476;53.468;9.826;2023-03-23T16:18:50;13.30;99.90
44166;DHT22;30476;53.468;9.826;2023-03-23T16:21:16;13.20;99.90
44166;DHT22;30476;53.468;9.826;2023-03-23T16:23:42;13.10;99.90
44166;DHT22;30476;53.468;9.826;2023-03-23T16:26:11;13.10;99.90
44166;DHT22;30476;53.468;9.826;2023-03-23T16:28:37;13.10;99.90
44166;DHT22;30476;53.468;9.826;2023-03-23T16:31:03;13.10;99.90
44166;DHT22;30476;53.468;9.826;2023-03-23T16:33:29;13.00;99.90
44166;DHT22;30476;53.468;9.826;2023-03-23T16:35:55;13.00;99.90
44166;DHT22;30476;53.468;9.826;2023-03-23T16:38:23;12.90;99.90
44166;DHT22;30476;53.468;9.826;2023-03-23T16:40:49;12.90;99.90
44166;DHT22;30476;53.468;9.826;2023-03-23T16:43:15;12.90;99.90
44166;DHT22;30476;53.468;9.826;2023-03-23T16:45:43;12.90;99.90
44166;DHT22;30476;53.468;9.826;2023-03-23T16:48:10;12.90;99.90
44166;DHT22;30476;53.468;9.826;2023-03-23T16:50:37;12.90;99.90
44166;DHT22;30476;53.468;9.826;2023-03-23T16:53:04;12.90;99.90
44166;DHT22;30476;53.468;9.826;2023-03-23T16:55:30;12.90;99.90
44166;DHT22;30476;53.468;9.826;2023-03-23T16:57:56;12.90;99.90
44166;DHT22;30476;53.468;9.826;2023-03-23T17:00:22;12.90;99.90
44166;DHT22;30476;53.468;9.826;2023-03-23T17:02:50;12.90;99.90
44166;DHT22;30476;53.468;9.826;2023-03-23T17:05:22;12.90;99.90
44166;DHT22;30476;53.468;9.826;2023-03-23T17:07:48;12.80;99.90
44166;DHT22;30476;53.468;9.826;2023-03-23T17:10:14;12.80;99.90
44166;DHT22;30476;53.468;9.826;2023-03-23T17:12:40;12.80;99.90
44166;DHT22;30476;53.468;9.826;2023-03-23T17:15:07;12.80;99.90